Portada
METAR-TAF:

METAR-TAF

Aeroports :

Grinnell, Iowa, Estats Units d'Amèrica

latitud: 41-42-35N, longitud: 092-44-09W, altitud: 307 m

Observació

L'informe es va fer fa 22 minuts, a les 01:55 UTC
Vent 5 kt del Sud-Est
Temperatura 4°C
Humitat 70%
Pressió 1007 hPa
Visibilitat: 16.1 km
Cel ennuvolat a una alçada de 6000 ft

METAR: KGGI 190155Z AUTO 14005KT 10SM BKN060 04/M01 A2973 RMK AO2 T00371010

Hora: 20:17 (02:17 UTC)


TAF: manca

Observacions i pronòstics meteorològics de més de 4000 aeroports (METAR i TAF).

Les estacions disponibles són els punts grocs i vermells al mapa.

Posi el ratolí al punt desitjat per veure el nom de l'estació.

Feu clic per veure les observacions i els pronòstics meteorològics.

Per canviar el mapa: feu clic els botons verds amb una creu de color negre per apropar; al botó verd amb un guió per allunyar la imatge; o en les fletxes verdes per a mapes adjacents.


METAR-TAF: